Time;durP1;ratioP1;P1;durP2;ratioP2;P2;SDS_P1;SDS_P2;PMS_P1;PMS_P2;Temp;Humidity;BMP_temperature;BMP_pressure;BME280_temperature;BME280_humidity;BME280_pressure;Samples;Min_cycle;Max_cycle;Signal;HPM_P1;HPM_P2
2021/04/17 00:02:15;;;;;;;16.50;5.00;;;;;;;2.13;97.93;99050.40;2192402;80;21288;-74
2021/04/17 00:05:17;;;;;;;18.37;5.30;;;;;;;2.12;98.13;99047.39;2219185;80;21145;-73
2021/04/17 00:08:19;;;;;;;18.35;5.60;;;;;;;2.12;98.20;99043.52;2219106;80;21712;-74
2021/04/17 00:11:21;;;;;;;20.75;5.90;;;;;;;2.14;98.19;99038.30;2192728;80;21284;-74
2021/04/17 00:14:24;;;;;;;20.25;6.33;;;;;;;2.14;98.16;99042.18;2192474;80;21272;-74
2021/04/17 00:17:28;;;;;;;19.05;6.62;;;;;;;2.14;98.13;99031.83;2219082;80;21301;-74
2021/04/17 00:20:29;;;;;;;20.40;7.37;;;;;;;2.16;98.17;99033.95;2218937;80;21729;-75
2021/04/17 00:23:32;;;;;;;21.62;7.65;;;;;;;2.19;98.18;99037.77;2192517;80;21292;-74
2021/04/17 00:26:34;;;;;;;22.70;8.43;;;;;;;2.19;98.17;99032.13;2219015;80;21713;-74
2021/04/17 00:29:37;;;;;;;22.25;8.15;;;;;;;2.21;98.10;99029.50;2219147;80;21296;-74
2021/04/17 00:32:39;;;;;;;21.30;7.85;;;;;;;2.22;98.14;99032.51;2219044;80;21705;-73
2021/04/17 00:35:42;;;;;;;22.48;8.53;;;;;;;2.23;98.05;99029.04;2218916;80;21717;-74
2021/04/17 00:38:43;;;;;;;22.13;8.25;;;;;;;2.20;98.16;99027.83;2219067;80;21329;-74
2021/04/17 00:41:45;;;;;;;23.12;8.45;;;;;;;2.23;98.20;99025.16;2219039;80;21134;-75
2021/04/17 00:44:47;;;;;;;24.55;9.05;;;;;;;2.27;98.12;99027.22;2219097;80;21157;-74
2021/04/17 00:47:49;;;;;;;30.05;11.53;;;;;;;2.27;98.12;99028.51;2219026;80;21717;-73
2021/04/17 00:50:51;;;;;;;25.02;9.35;;;;;;;2.28;98.15;99023.30;2219423;80;21298;-73
2021/04/17 00:53:53;;;;;;;26.23;9.38;;;;;;;2.33;97.99;99027.92;2218970;80;21733;-73
2021/04/17 00:56:55;;;;;;;26.10;9.40;;;;;;;2.35;97.83;99032.61;2219006;80;21296;-74
2021/04/17 00:59:57;;;;;;;22.02;8.18;;;;;;;2.31;97.89;99034.02;2219080;80;21256;-74
2021/04/17 01:02:59;;;;;;;23.12;8.63;;;;;;;2.30;97.90;99032.31;2219156;80;21264;-73
2021/04/17 01:06:01;;;;;;;23.45;8.93;;;;;;;2.28;97.95;99033.65;2219004;80;21340;-75
2021/04/17 01:09:03;;;;;;;22.85;8.58;;;;;;;2.30;97.99;99033.19;2192926;80;21272;-74
2021/04/17 01:12:05;;;;;;;24.80;9.45;;;;;;;2.31;97.92;99029.69;2219015;80;21288;-74
2021/04/17 01:15:07;;;;;;;23.77;8.25;;;;;;;2.31;97.85;99027.09;2219038;80;21720;-73
2021/04/17 01:18:09;;;;;;;24.27;8.90;;;;;;;2.30;97.83;99033.19;2219045;80;21265;-74
2021/04/17 01:21:11;;;;;;;26.07;9.58;;;;;;;2.31;97.86;99028.39;2219059;80;21304;-74
2021/04/17 01:24:13;;;;;;;24.15;9.38;;;;;;;2.32;97.87;99027.52;2218931;80;21304;-73
2021/04/17 01:27:15;;;;;;;24.55;9.13;;;;;;;2.33;97.95;99032.23;2218987;80;21316;-73
2021/04/17 01:30:17;;;;;;;24.12;10.40;;;;;;;2.34;97.93;99029.64;2219038;80;21272;-74
2021/04/17 01:33:19;;;;;;;26.00;10.28;;;;;;;2.36;98.02;99030.89;2218989;80;21280;-74
2021/04/17 01:36:21;;;;;;;23.35;8.50;;;;;;;2.37;98.06;99028.27;2219106;80;21744;-73
2021/04/17 01:39:25;;;;;;;26.17;9.70;;;;;;;2.37;98.13;99029.98;2219016;80;21261;-73
2021/04/17 01:42:27;;;;;;;29.65;11.55;;;;;;;2.35;98.25;99027.89;2218842;80;21296;-73
2021/04/17 01:45:29;;;;;;;27.85;11.28;;;;;;;2.41;98.31;99027.73;2218962;80;21272;-73
2021/04/17 01:48:31;;;;;;;27.60;11.28;;;;;;;2.48;98.35;99024.10;2218993;80;21122;-74
2021/04/17 01:51:33;;;;;;;28.57;10.35;;;;;;;2.47;98.19;99017.24;2218950;80;21721;-73
2021/04/17 01:54:36;;;;;;;;;;;;;;;2.48;98.31;99020.67;2221673;80;21281;-73
2021/04/17 01:57:38;;;;;;;30.68;11.20;;;;;;;2.43;98.46;99016.45;2219129;80;20143;-74
2021/04/17 02:00:40;;;;;;;27.82;10.80;;;;;;;2.41;98.63;99018.24;2219009;80;21265;-74
2021/04/17 02:03:42;;;;;;;27.73;11.43;;;;;;;2.41;98.88;99020.83;2218952;80;21297;-73
2021/04/17 02:06:43;;;;;;;29.35;10.55;;;;;;;2.41;98.86;99026.02;2218955;80;21308;-74
2021/04/17 02:09:45;;;;;;;30.92;11.22;;;;;;;2.42;99.08;99024.27;2218962;80;21304;-74
2021/04/17 02:12:47;;;;;;;29.27;11.12;;;;;;;2.44;99.19;99017.30;2218947;80;21273;-74
2021/04/17 02:15:49;;;;;;;31.02;12.37;;;;;;;2.51;99.03;99016.25;2192548;80;21709;-73
2021/04/17 02:18:51;;;;;;;30.90;11.33;;;;;;;2.54;98.90;99011.45;2218966;80;21293;-74
2021/04/17 02:21:53;;;;;;;29.52;11.00;;;;;;;2.52;98.86;99013.23;2219050;80;21724;-73
2021/04/17 02:24:55;;;;;;;35.88;13.98;;;;;;;2.56;98.92;99019.59;2219294;80;21297;-72
2021/04/17 02:27:57;;;;;;;30.50;12.23;;;;;;;2.58;98.85;99019.55;2219116;80;21272;-74
2021/04/17 02:30:59;;;;;;;32.25;12.25;;;;;;;2.59;98.89;99019.96;2192374;80;21260;-73
2021/04/17 02:34:01;;;;;;;32.03;13.70;;;;;;;2.60;98.94;99017.75;2219035;80;21300;-73
2021/04/17 02:37:03;;;;;;;34.90;14.50;;;;;;;2.60;98.88;99009.98;2218957;80;21289;-73
2021/04/17 02:40:05;;;;;;;31.48;13.25;;;;;;;2.61;98.90;99014.28;2218975;80;21272;-74
2021/04/17 02:43:07;;;;;;;34.43;15.10;;;;;;;2.59;98.98;99010.44;2218887;80;21777;-74
2021/04/17 02:46:09;;;;;;;35.23;14.10;;;;;;;2.59;99.00;99010.44;2218961;80;21313;-74
2021/04/17 02:49:11;;;;;;;37.05;15.38;;;;;;;2.61;99.08;99010.40;2218964;80;21285;-73
2021/04/17 02:52:13;;;;;;;33.23;13.45;;;;;;;2.63;99.02;99009.94;2218830;80;21554;-73
2021/04/17 02:55:15;;;;;;;33.00;13.98;;;;;;;2.66;98.98;99020.21;2218268;80;21280;-74
2021/04/17 02:58:17;;;;;;;33.10;13.43;;;;;;;2.69;99.03;99011.52;2218216;80;21285;-73
2021/04/17 03:01:19;;;;;;;31.90;12.63;;;;;;;2.72;99.06;99008.84;2218593;80;21138;-73
2021/04/17 03:04:21;;;;;;;35.10;13.38;;;;;;;2.72;98.99;99003.20;2218224;80;21285;-74
2021/04/17 03:07:23;;;;;;;32.58;13.78;;;;;;;2.71;98.83;99005.38;2218255;80;21296;-74
2021/04/17 03:10:25;;;;;;;36.65;14.53;;;;;;;2.71;98.97;99001.50;2218436;80;21150;-74
2021/04/17 03:13:27;;;;;;;34.55;14.83;;;;;;;2.68;99.03;99005.47;2218544;80;21146;-74
2021/04/17 03:16:29;;;;;;;37.23;15.25;;;;;;;2.69;99.21;99006.34;2218471;80;21122;-74
2021/04/17 03:19:31;;;;;;;37.38;15.90;;;;;;;2.69;99.29;99005.05;2218457;80;21272;-74
2021/04/17 03:22:33;;;;;;;34.98;14.13;;;;;;;2.70;99.29;99008.89;2189976;80;21298;-73
2021/04/17 03:25:35;;;;;;;36.58;16.42;;;;;;;2.70;99.41;99005.00;2218430;80;21154;-73
2021/04/17 03:28:37;;;;;;;37.17;16.60;;;;;;;2.76;99.27;99010.02;2218467;80;21135;-74
2021/04/17 03:31:39;;;;;;;37.25;17.17;;;;;;;2.79;99.10;99011.67;2218451;80;21602;-73
2021/04/17 03:34:41;;;;;;;37.58;16.75;;;;;;;2.84;99.11;99015.44;2218452;80;21393;-73
2021/04/17 03:37:42;;;;;;;36.50;15.50;;;;;;;2.85;98.87;99019.73;2218407;80;21151;-74
2021/04/17 03:40:45;;;;;;;34.95;15.32;;;;;;;2.92;98.92;99020.81;2218814;80;21696;-74
2021/04/17 03:43:46;;;;;;;34.43;14.73;;;;;;;2.88;98.81;99018.35;2218803;80;21280;-74
2021/04/17 03:46:48;;;;;;;37.35;14.55;;;;;;;2.94;98.94;99020.34;2218508;80;21158;-73
2021/04/17 03:49:50;;;;;;;36.23;15.78;;;;;;;2.98;98.81;99023.69;2218452;80;21154;-72
2021/04/17 03:52:52;;;;;;;35.88;15.72;;;;;;;3.03;98.83;99027.45;2219050;80;21158;-74
2021/04/17 03:55:54;;;;;;;36.55;16.52;;;;;;;3.08;98.69;99024.30;2222690;79;21747;-74
2021/04/17 03:58:57;;;;;;;37.03;16.23;;;;;;;3.20;98.65;99026.99;2222561;79;21284;-74
2021/04/17 04:01:59;;;;;;;;;;;;;;;3.26;98.36;99038.48;2225163;79;21723;-73
2021/04/17 04:05:01;;;;;;;37.83;16.30;;;;;;;3.32;98.03;99037.03;2222606;79;20151;-73
2021/04/17 04:08:03;;;;;;;31.40;13.80;;;;;;;3.33;97.76;99029.63;2222577;79;21276;-74
2021/04/17 04:11:05;;;;;;;33.58;14.00;;;;;;;3.33;97.62;99037.41;2222549;79;21272;-73
2021/04/17 04:14:07;;;;;;;32.20;13.65;;;;;;;3.31;97.57;99032.73;2222663;79;21697;-73
2021/04/17 04:17:09;;;;;;;34.78;14.65;;;;;;;3.31;97.58;99040.97;2222652;79;21288;-73
2021/04/17 04:20:11;;;;;;;33.00;14.28;;;;;;;3.32;97.59;99042.64;2222458;80;21308;-74
2021/04/17 04:23:13;;;;;;;33.00;14.90;;;;;;;3.35;97.58;99042.55;2222519;79;21273;-73
2021/04/17 04:26:15;;;;;;;35.00;15.38;;;;;;;3.35;97.45;99048.61;2222612;79;21276;-74
2021/04/17 04:29:17;;;;;;;34.30;14.98;;;;;;;3.36;97.54;99048.16;2222520;79;21572;-74
2021/04/17 04:32:19;;;;;;;34.55;14.83;;;;;;;3.36;97.49;99046.86;2222807;79;21285;-74
2021/04/17 04:35:20;;;;;;;32.40;14.50;;;;;;;3.33;97.53;99047.78;2222535;79;21288;-74
2021/04/17 04:38:23;;;;;;;31.33;13.78;;;;;;;3.36;97.60;99047.73;2222754;79;21265;-74
2021/04/17 04:41:25;;;;;;;33.18;13.60;;;;;;;3.35;97.49;99047.31;2222542;79;21154;-74
2021/04/17 04:44:27;;;;;;;32.70;14.68;;;;;;;3.37;97.61;99053.75;2222745;79;21281;-73
2021/04/17 04:47:29;;;;;;;31.52;14.40;;;;;;;3.41;97.69;99059.27;2222604;79;21709;-73
2021/04/17 04:50:31;;;;;;;28.38;12.15;;;;;;;3.39;97.51;99054.12;2222516;80;21300;-72
2021/04/17 04:53:33;;;;;;;28.32;12.93;;;;;;;3.35;97.41;99058.98;2221360;80;21281;-74
2021/04/17 04:56:35;;;;;;;28.47;11.97;;;;;;;3.32;97.47;99065.98;2219416;80;21305;-74
2021/04/17 04:59:36;;;;;;;28.57;12.18;;;;;;;3.29;97.64;99060.45;2219037;80;21276;-73
2021/04/17 05:02:39;;;;;;;29.30;12.25;;;;;;;3.26;97.75;99063.98;2218974;80;21740;-73
2021/04/17 05:05:41;;;;;;;28.85;12.07;;;;;;;3.29;97.89;99062.59;2219110;80;22036;-73
2021/04/17 05:08:43;;;;;;;31.15;14.10;;;;;;;3.35;97.77;99065.89;2219049;80;21284;-73
2021/04/17 05:11:45;;;;;;;35.45;16.00;;;;;;;3.38;97.88;99061.94;2219008;80;21280;-75
2021/04/17 05:14:47;;;;;;;44.48;19.77;;;;;;;3.43;97.92;99062.22;2219010;80;21345;-73
2021/04/17 05:17:48;;;;;;;42.43;20.50;;;;;;;3.45;97.78;99063.02;2219002;80;21280;-74
2021/04/17 05:20:50;;;;;;;30.62;12.65;;;;;;;3.55;97.95;99069.22;2219018;80;21265;-74
2021/04/17 05:23:52;;;;;;;30.43;13.00;;;;;;;3.63;97.80;99068.56;2218990;80;21264;-74
2021/04/17 05:26:54;;;;;;;32.93;14.25;;;;;;;3.67;97.34;99074.08;2218973;80;21308;-73
2021/04/17 05:29:57;;;;;;;36.42;14.07;;;;;;;3.64;97.42;99064.63;2218997;80;21281;-73
2021/04/17 05:32:58;;;;;;;33.20;14.80;;;;;;;3.75;97.57;99069.52;2218981;80;21712;-73
2021/04/17 05:36:00;;;;;;;34.27;15.15;;;;;;;3.83;97.43;99065.84;2219015;80;21296;-73
2021/04/17 05:39:02;;;;;;;37.17;14.90;;;;;;;3.84;96.88;99063.66;2219015;80;21114;-73
2021/04/17 05:42:04;;;;;;;39.00;17.48;;;;;;;3.86;96.98;99066.59;2219324;80;21145;-73
2021/04/17 05:45:06;;;;;;;37.83;15.72;;;;;;;3.96;97.08;99074.50;2219451;80;21299;-73
2021/04/17 05:48:08;;;;;;;38.05;17.20;;;;;;;3.97;96.44;99067.58;2219028;80;21126;-74
2021/04/17 05:51:10;;;;;;;41.13;17.50;;;;;;;4.03;96.83;99068.69;2219007;80;21285;-73
2021/04/17 05:54:13;;;;;;;44.10;19.42;;;;;;;4.09;96.53;99072.38;2218695;80;21693;-73
2021/04/17 05:57:15;;;;;;;37.63;15.45;;;;;;;4.13;96.18;99074.45;2218310;80;21708;-73
2021/04/17 06:00:16;;;;;;;30.55;12.80;;;;;;;4.19;96.19;99073.41;2218304;80;21289;-73
2021/04/17 06:03:19;;;;;;;35.73;15.83;;;;;;;4.18;95.75;99075.17;2218630;80;21146;-73
2021/04/17 06:06:21;;;;;;;30.40;13.28;;;;;;;4.23;95.76;99072.43;2218300;80;21292;-73
2021/04/17 06:09:22;;;;;;;31.20;12.18;;;;;;;4.24;95.84;99071.51;2218326;80;21709;-73
2021/04/17 06:12:24;;;;;;;29.25;11.95;;;;;;;4.24;95.53;99071.51;2218658;80;21268;-73
2021/04/17 06:15:26;;;;;;;27.25;9.90;;;;;;;4.32;96.19;99070.40;2218331;80;21266;-73
2021/04/17 06:18:28;;;;;;;26.80;10.70;;;;;;;4.33;95.93;99071.23;2218411;80;21268;-73
2021/04/17 06:21:30;;;;;;;30.20;10.65;;;;;;;4.28;95.44;99070.09;2218488;80;21292;-73
2021/04/17 06:24:32;;;;;;;27.15;10.50;;;;;;;4.16;95.28;99066.10;2218249;80;21289;-72
2021/04/17 06:27:34;;;;;;;28.80;11.50;;;;;;;4.13;96.10;99058.41;2218248;80;21757;-73
2021/04/17 06:30:36;;;;;;;30.77;12.28;;;;;;;4.16;96.11;99067.41;2218724;80;21300;-73
2021/04/17 06:33:38;;;;;;;28.32;10.82;;;;;;;4.15;96.19;99067.45;2218234;80;21273;-72
2021/04/17 06:36:40;;;;;;;29.92;11.97;;;;;;;4.19;95.66;99069.52;2218382;80;21425;-73
2021/04/17 06:39:42;;;;;;;29.07;12.07;;;;;;;4.25;96.35;99068.02;2218271;80;21720;-73
2021/04/17 06:42:44;;;;;;;33.38;13.30;;;;;;;4.26;95.73;99067.97;2218398;80;21103;-73
2021/04/17 06:45:46;;;;;;;27.48;11.22;;;;;;;4.29;95.87;99070.47;2218492;80;21115;-72
2021/04/17 06:48:48;;;;;;;30.90;12.20;;;;;;;4.27;95.15;99072.73;2218543;80;21142;-73
2021/04/17 06:51:51;;;;;;;28.23;12.13;;;;;;;4.18;95.73;99067.38;2218845;80;21281;-74
2021/04/17 06:54:54;;;;;;;29.63;12.15;;;;;;;4.17;95.74;99072.17;2218620;80;21312;-73
2021/04/17 06:57:56;;;;;;;30.05;12.35;;;;;;;4.17;95.98;99072.17;2218865;80;21279;-73
2021/04/17 07:00:58;;;;;;;30.97;12.50;;;;;;;4.16;95.57;99070.00;2218496;80;21272;-73
2021/04/17 07:04:00;;;;;;;31.00;11.48;;;;;;;4.20;95.53;99074.66;2218471;80;21590;-73
2021/04/17 07:07:02;;;;;;;28.35;11.83;;;;;;;4.16;95.46;99076.48;2218806;80;21603;-72
2021/04/17 07:10:03;;;;;;;27.73;11.53;;;;;;;4.14;95.38;99082.19;2218468;80;21102;-73
2021/04/17 07:13:05;;;;;;;28.55;11.40;;;;;;;4.08;95.73;99079.80;2218423;80;21135;-72
2021/04/17 07:16:08;;;;;;;27.85;11.00;;;;;;;4.10;95.96;99087.07;2218397;80;21138;-73
2021/04/17 07:19:10;;;;;;;28.40;11.00;;;;;;;4.08;95.84;99083.69;2218535;80;21560;-72
2021/04/17 07:22:12;;;;;;;29.80;11.10;;;;;;;4.11;95.71;99091.38;2218542;80;21582;-73
2021/04/17 07:25:14;;;;;;;28.92;11.08;;;;;;;4.11;95.72;99090.08;2218596;80;21127;-74
2021/04/17 07:28:16;;;;;;;29.30;11.55;;;;;;;4.12;95.78;99092.22;2218502;80;21616;-73
2021/04/17 07:31:18;;;;;;;29.55;11.80;;;;;;;4.14;95.51;99087.39;2218496;80;21274;-73
2021/04/17 07:34:20;;;;;;;31.00;12.80;;;;;;;4.10;95.74;99093.56;2218461;80;21126;-73
2021/04/17 07:37:22;;;;;;;31.42;11.97;;;;;;;4.13;96.00;99091.33;2218690;80;21293;-72
2021/04/17 07:40:24;;;;;;;30.12;12.58;;;;;;;4.15;95.96;99086.92;2218477;80;21261;-73
2021/04/17 07:43:26;;;;;;;28.73;11.30;;;;;;;4.16;96.01;99091.23;2218407;80;21625;-73
2021/04/17 07:46:28;;;;;;;30.90;12.00;;;;;;;4.26;96.30;99082.71;2218424;80;21598;-73
2021/04/17 07:49:30;;;;;;;30.35;11.93;;;;;;;4.26;96.30;99082.71;2218547;80;21114;-73
2021/04/17 07:52:32;;;;;;;28.80;11.93;;;;;;;4.30;95.63;99091.66;2218535;80;21190;-73
2021/04/17 07:55:35;;;;;;;29.85;11.85;;;;;;;4.36;95.68;99087.18;2221429;80;21319;-73
2021/04/17 07:58:38;;;;;;;31.05;12.07;;;;;;;4.39;95.87;99087.08;2222681;80;21808;-73
2021/04/17 08:01:39;;;;;;;28.95;11.45;;;;;;;4.43;95.37;99099.08;2222547;79;21348;-73
2021/04/17 08:04:41;;;;;;;28.57;11.65;;;;;;;4.47;95.47;99095.02;2222568;79;21280;-73
2021/04/17 08:07:43;;;;;;;28.55;11.00;;;;;;;4.52;94.69;99101.37;2222506;79;21728;-73
2021/04/17 08:10:46;;;;;;;28.25;11.85;;;;;;;4.60;95.54;99099.84;2222549;79;21595;-73
2021/04/17 08:13:48;;;;;;;29.50;12.55;;;;;;;4.67;94.82;99093.09;2222603;79;21570;-72
2021/04/17 08:16:50;;;;;;;31.65;13.85;;;;;;;4.77;94.70;99094.94;2222537;79;21277;-73
2021/04/17 08:19:56;;;;;;;32.90;12.95;;;;;;;4.78;94.43;99098.38;2222870;79;21280;-72
2021/04/17 08:22:56;;;;;;;29.52;12.43;;;;;;;4.81;94.02;99105.64;2222092;80;21731;-73
2021/04/17 08:25:58;;;;;;;30.50;13.10;;;;;;;4.82;93.47;99105.17;2222496;80;21307;-73
2021/04/17 08:29:00;;;;;;;30.35;12.80;;;;;;;4.81;93.16;99100.87;2222555;79;21264;-73
2021/04/17 08:32:02;;;;;;;29.02;11.80;;;;;;;4.86;94.03;99103.72;2222496;80;21297;-72
2021/04/17 08:35:04;;;;;;;29.63;11.90;;;;;;;4.78;93.13;99108.77;2222627;79;21709;-73
2021/04/17 08:38:08;;;;;;;28.80;11.90;;;;;;;4.74;93.08;99108.47;2222545;79;21264;-73
2021/04/17 08:41:10;;;;;;;26.52;10.43;;;;;;;4.69;93.51;99109.46;2222369;80;21717;-72
2021/04/17 08:44:12;;;;;;;28.23;10.88;;;;;;;4.66;93.50;99101.77;2222471;79;21095;-72
2021/04/17 08:47:14;;;;;;;25.92;10.48;;;;;;;4.65;93.61;99103.96;2222464;79;21272;-73
2021/04/17 08:50:16;;;;;;;27.15;10.43;;;;;;;4.72;94.26;99105.08;2222592;79;21278;-73
2021/04/17 08:53:18;;;;;;;25.45;10.10;;;;;;;4.75;93.48;99108.41;2222478;79;21278;-72
2021/04/17 08:56:20;;;;;;;28.02;10.88;;;;;;;4.79;93.81;99113.08;2222447;79;21300;-72
2021/04/17 08:59:23;;;;;;;28.45;11.15;;;;;;;4.83;94.03;99110.32;2222535;79;21289;-71
2021/04/17 09:02:24;;;;;;;25.88;10.13;;;;;;;4.91;93.88;99111.81;2222590;79;21704;-73
2021/04/17 09:05:26;;;;;;;28.83;11.25;;;;;;;4.86;92.93;99115.41;2195944;80;21272;-73
2021/04/17 09:08:29;;;;;;;36.90;15.63;;;;;;;4.88;93.82;99110.16;2222688;79;21304;-72
2021/04/17 09:11:31;;;;;;;44.67;18.25;;;;;;;4.96;94.07;99109.92;2222458;79;21312;-72
2021/04/17 09:14:34;;;;;;;28.60;11.43;;;;;;;4.97;93.51;99109.00;2222496;79;21264;-72
2021/04/17 09:17:36;;;;;;;29.98;12.07;;;;;;;5.01;93.62;99107.57;2222477;79;21289;-72
2021/04/17 09:20:39;;;;;;;32.08;13.18;;;;;;;5.04;93.78;99104.00;2222584;79;21740;-72
2021/04/17 09:23:43;;;;;;;26.73;9.85;;;;;;;5.09;94.06;99102.10;2222540;80;21704;-72
2021/04/17 09:26:46;;;;;;;26.95;10.25;;;;;;;5.22;93.92;99109.03;2222326;80;21118;-72
2021/04/17 09:29:48;;;;;;;26.35;10.50;;;;;;;5.25;93.41;99103.72;2222839;80;21166;-72
2021/04/17 09:32:50;;;;;;;29.02;12.23;;;;;;;5.25;93.94;99110.69;2222459;79;21265;-72
2021/04/17 09:35:52;;;;;;;30.82;13.30;;;;;;;5.25;93.54;99115.88;2222529;79;21320;-73
2021/04/17 09:38:54;;;;;;;25.92;10.48;;;;;;;5.27;93.55;99116.23;2222489;79;21272;-72
2021/04/17 09:41:56;;;;;;;26.80;10.18;;;;;;;5.16;93.04;99120.95;2222428;80;21732;-73
2021/04/17 09:44:58;;;;;;;23.10;8.38;;;;;;;5.08;93.67;99121.20;2195718;80;21308;-72
2021/04/17 09:48:00;;;;;;;24.23;8.28;;;;;;;5.05;93.58;99118.70;2195893;80;21134;-72
2021/04/17 09:51:01;;;;;;;23.27;9.08;;;;;;;5.03;93.90;99121.82;2222802;80;21309;-72
2021/04/17 09:54:03;;;;;;;22.50;7.90;;;;;;;5.05;94.32;99122.60;2222374;80;21264;-72
2021/04/17 09:57:06;;;;;;;21.97;7.83;;;;;;;5.05;94.10;99122.60;2218433;80;21558;-72
2021/04/17 10:00:08;;;;;;;22.15;8.30;;;;;;;5.02;93.82;99118.81;2218560;80;21142;-72
2021/04/17 10:03:10;;;;;;;23.38;8.70;;;;;;;5.02;94.62;99122.71;2218596;80;21147;-73
2021/04/17 10:06:12;;;;;;;24.05;8.60;;;;;;;5.01;94.56;99115.80;2218298;80;21284;-72
2021/04/17 10:09:16;;;;;;;23.38;8.60;;;;;;;5.01;94.52;99116.67;2218414;80;21237;-72
2021/04/17 10:12:18;;;;;;;22.02;8.55;;;;;;;5.08;94.94;99117.30;2218186;80;21715;-73
2021/04/17 10:15:20;;;;;;;20.55;7.37;;;;;;;5.15;94.33;99116.64;2218693;80;21276;-72
2021/04/17 10:18:22;;;;;;;22.70;7.67;;;;;;;5.09;93.74;99122.06;2218412;80;21141;-72
2021/04/17 10:21:24;;;;;;;22.98;8.48;;;;;;;5.01;93.79;99118.40;2218299;80;21289;-72
2021/04/17 10:24:26;;;;;;;22.07;8.50;;;;;;;5.00;94.11;99118.02;2218411;80;21127;-72
2021/04/17 10:27:34;;;;;;;23.80;8.48;;;;;;;4.99;93.92;99124.95;2218263;80;21729;-72
2021/04/17 10:30:32;;;;;;;22.07;8.25;;;;;;;4.99;94.74;99119.75;2217652;80;21142;-73
2021/04/17 10:33:34;;;;;;;22.10;8.28;;;;;;;5.03;94.42;99119.22;2218294;80;21142;-73
2021/04/17 10:36:36;;;;;;;22.85;8.60;;;;;;;5.08;94.49;99126.39;2189861;80;21284;-72
2021/04/17 10:39:38;;;;;;;21.50;8.48;;;;;;;5.15;94.35;99123.14;2218307;80;21265;-72
2021/04/17 10:42:40;;;;;;;24.20;8.20;;;;;;;5.13;93.96;99123.20;2218277;80;21713;-72
2021/04/17 10:45:42;;;;;;;22.48;8.63;;;;;;;5.18;94.10;99122.58;2218223;80;21320;-72
2021/04/17 10:48:44;;;;;;;26.62;11.75;;;;;;;5.20;94.02;99124.69;2218566;80;21150;-73
2021/04/17 10:51:46;;;;;;;28.07;12.15;;;;;;;5.13;94.48;99125.80;2218245;80;21273;-73
2021/04/17 10:54:48;;;;;;;26.42;11.35;;;;;;;5.18;94.51;99132.14;2218845;80;21709;-72
2021/04/17 10:57:50;;;;;;;28.17;12.10;;;;;;;5.25;95.12;99134.09;2222644;79;21288;-72
2021/04/17 11:00:52;;;;;;;27.05;11.75;;;;;;;5.24;94.74;99130.63;2222405;79;21269;-72
2021/04/17 11:03:54;;;;;;;31.77;12.90;;;;;;;5.23;94.46;99128.94;2195917;80;21570;-73
2021/04/17 11:06:59;;;;;;;32.03;14.58;;;;;;;5.26;94.79;99133.16;2222294;80;21291;-73
2021/04/17 11:10:01;;;;;;;26.85;11.68;;;;;;;5.28;94.70;99134.81;2222435;79;21292;-73
2021/04/17 11:13:04;;;;;;;28.05;11.03;;;;;;;5.28;94.37;99128.78;2222510;80;21744;-73
2021/04/17 11:16:06;;;;;;;29.45;12.13;;;;;;;5.34;94.64;99132.45;2195906;80;21312;-73
2021/04/17 11:19:08;;;;;;;27.45;11.90;;;;;;;5.37;94.23;99130.62;2222890;80;21280;-73
2021/04/17 11:22:10;;;;;;;29.25;12.30;;;;;;;5.36;94.13;99137.17;2222741;80;21312;-73
2021/04/17 11:25:12;;;;;;;29.77;13.80;;;;;;;5.33;94.06;99139.86;2222313;79;21605;-73
2021/04/17 11:28:14;;;;;;;26.85;11.43;;;;;;;5.32;94.58;99141.62;2222751;80;21284;-73
2021/04/17 11:31:17;;;;;;;28.77;13.25;;;;;;;5.31;94.41;99145.58;2222582;80;21592;-72
2021/04/17 11:34:19;;;;;;;28.92;12.23;;;;;;;5.33;94.56;99148.53;2196186;80;21268;-72
2021/04/17 11:37:23;;;;;;;30.10;12.50;;;;;;;5.34;94.69;99146.34;2222595;80;21281;-72
2021/04/17 11:40:25;;;;;;;29.40;13.03;;;;;;;5.29;93.97;99151.30;2222453;79;21115;-72
2021/04/17 11:43:28;;;;;;;;;;;;;;;5.31;94.64;99152.08;2198479;80;21759;-73
2021/04/17 11:46:30;;;;;;;28.27;11.80;;;;;;;5.30;94.64;99149.94;2222689;79;20222;-73
2021/04/17 11:49:32;;;;;;;28.27;11.28;;;;;;;5.27;94.26;99151.78;2222625;79;21371;-73
2021/04/17 11:52:34;;;;;;;34.00;13.20;;;;;;;5.23;94.27;99152.78;2222662;79;21697;-73
2021/04/17 11:55:36;;;;;;;31.15;12.15;;;;;;;5.22;94.69;99150.64;2222513;79;21288;-73
2021/04/17 11:58:38;;;;;;;27.82;11.57;;;;;;;5.24;94.66;99151.42;2222597;79;21253;-73
2021/04/17 12:01:43;;;;;;;28.83;11.85;;;;;;;5.30;94.95;99152.97;2222657;80;21261;-72
2021/04/17 12:04:45;;;;;;;28.62;12.28;;;;;;;5.27;94.43;99148.75;2222665;79;21711;-72
2021/04/17 12:07:47;;;;;;;34.08;14.47;;;;;;;5.26;94.24;99153.97;2222543;79;21300;-73
2021/04/17 12:10:49;;;;;;;33.08;13.83;;;;;;;5.26;94.61;99150.94;2222561;79;21292;-73
2021/04/17 12:13:51;;;;;;;33.38;15.80;;;;;;;5.27;94.21;99147.87;2222997;79;21296;-72
2021/04/17 12:16:54;;;;;;;;;;;;;;;5.29;94.46;99154.73;2225309;80;21281;-73
2021/04/17 12:19:58;;;;;;;28.42;11.75;;;;;;;5.33;95.11;99148.96;2222727;79;20215;-73
2021/04/17 12:23:00;;;;;;;25.27;9.15;;;;;;;5.37;94.82;99149.26;2195793;80;21301;-72
2021/04/17 12:26:02;;;;;;;25.60;10.43;;;;;;;5.39;94.11;99152.67;2222516;80;21324;-72
2021/04/17 12:29:04;;;;;;;26.10;9.83;;;;;;;5.35;94.21;99149.31;2222532;79;21288;-72
2021/04/17 12:32:06;;;;;;;;;;;;;;;5.35;94.62;99146.71;2225240;80;21289;-72
2021/04/17 12:35:09;;;;;;;22.22;8.30;;;;;;;5.33;94.46;99151.56;2222425;79;20222;-73
2021/04/17 12:38:12;;;;;;;;;;;;;;;5.33;93.93;99159.36;2225053;80;21296;-73
2021/04/17 12:41:13;;;;;;;26.00;9.70;;;;;;;5.35;94.70;99157.58;2222484;79;20234;-73
2021/04/17 12:44:15;;;;;;;24.82;9.28;;;;;;;5.34;94.72;99149.37;2222752;80;21340;-73
2021/04/17 12:47:17;;;;;;;25.27;10.13;;;;;;;5.31;94.17;99150.31;2222489;80;21265;-73
2021/04/17 12:50:19;;;;;;;27.07;11.43;;;;;;;5.27;94.66;99155.68;2222615;79;21693;-73
2021/04/17 12:53:25;;;;;;;25.82;10.88;;;;;;;5.27;94.48;99153.95;2222490;79;21570;-73
2021/04/17 12:56:27;;;;;;;25.25;9.98;;;;;;;5.29;94.62;99155.20;2220146;79;21308;-73
2021/04/17 12:59:29;;;;;;;29.25;12.50;;;;;;;5.30;94.53;99152.54;2218374;80;21134;-73
2021/04/17 13:02:31;;;;;;;26.85;11.22;;;;;;;5.29;94.65;99152.13;2218370;80;21292;-73
2021/04/17 13:05:33;;;;;;;27.62;11.43;;;;;;;5.30;94.38;99152.54;2189789;80;21161;-73
2021/04/17 13:08:36;;;;;;;27.05;11.15;;;;;;;5.33;94.38;99152.43;2217976;80;21063;-73
2021/04/17 13:11:39;;;;;;;24.98;9.85;;;;;;;5.40;94.80;99154.81;2218386;80;21609;-72
2021/04/17 13:14:41;;;;;;;27.67;11.97;;;;;;;5.38;93.87;99145.77;2218462;80;21570;-72
2021/04/17 13:17:43;;;;;;;25.65;10.75;;;;;;;5.39;94.47;99155.27;2218341;80;21276;-73
2021/04/17 13:20:45;;;;;;;22.80;9.68;;;;;;;5.47;94.45;99148.49;2218358;80;21103;-73
2021/04/17 13:23:47;;;;;;;25.70;10.03;;;;;;;5.47;94.18;99151.93;2218369;80;21277;-73
2021/04/17 13:26:49;;;;;;;26.80;10.25;;;;;;;5.43;93.82;99149.06;2218332;80;21297;-73
2021/04/17 13:29:51;;;;;;;25.48;9.88;;;;;;;5.42;94.36;99146.52;2218355;80;21304;-72
2021/04/17 13:32:53;;;;;;;25.65;10.32;;;;;;;5.40;94.14;99150.45;2218339;80;21265;-72
2021/04/17 13:35:55;;;;;;;28.60;11.55;;;;;;;5.40;94.43;99153.05;2218433;80;21285;-72
2021/04/17 13:38:57;;;;;;;27.82;11.12;;;;;;;5.42;94.38;99153.86;2218321;80;21127;-72
2021/04/17 13:41:59;;;;;;;24.92;9.90;;;;;;;5.51;94.53;99152.23;2218314;80;21590;-72
2021/04/17 13:45:01;;;;;;;22.80;8.50;;;;;;;5.52;93.93;99163.05;2218340;80;21285;-72
2021/04/17 13:48:03;;;;;;;22.70;8.10;;;;;;;5.57;94.38;99163.34;2218298;80;21307;-72
2021/04/17 13:51:06;;;;;;;22.87;8.60;;;;;;;5.63;94.31;99173.09;2218400;80;21316;-72
2021/04/17 13:54:08;;;;;;;22.32;8.08;;;;;;;5.64;93.55;99170.02;2218561;80;21593;-72
2021/04/17 13:57:10;;;;;;;24.20;8.78;;;;;;;5.66;93.65;99169.50;2218488;80;21572;-72
2021/04/17 14:00:12;;;;;;;22.65;7.90;;;;;;;5.65;93.72;99168.66;2218305;80;21288;-72
2021/04/17 14:03:14;;;;;;;27.82;12.35;;;;;;;5.70;93.97;99175.00;2218314;80;21268;-73
2021/04/17 14:06:16;;;;;;;38.35;15.98;;;;;;;5.71;93.49;99174.95;2218460;80;21107;-72
2021/04/17 14:09:18;;;;;;;39.20;17.37;;;;;;;5.69;93.35;99171.56;2218323;80;21312;-73
2021/04/17 14:12:20;;;;;;;37.40;16.97;;;;;;;5.65;93.11;99173.88;2218328;80;21725;-73